createdAt,value
2022-11-03T00:01:42.058Z,101652.81
2022-11-03T00:04:45.822Z,101651.91
2022-11-03T00:07:50.794Z,101649.25
2022-11-03T00:10:54.432Z,101641.44
2022-11-03T00:13:59.128Z,101630.88
2022-11-03T00:17:02.704Z,101627.25
2022-11-03T00:20:07.639Z,101617.56
2022-11-03T00:23:12.672Z,101620.38
2022-11-03T00:26:18.977Z,101614.19
2022-11-03T00:29:22.605Z,101614.97
2022-11-03T00:32:26.566Z,101609.72
2022-11-03T00:35:30.172Z,101607.84
2022-11-03T00:38:35.985Z,101607.00
2022-11-03T00:41:40.565Z,101595.50
2022-11-03T00:44:44.231Z,101588.47
2022-11-03T00:48:01.685Z,101590.28
2022-11-03T00:51:08.997Z,101591.13
2022-11-03T00:54:14.025Z,101581.66
2022-11-03T00:57:17.686Z,101575.22
2022-11-03T01:00:21.511Z,101576.09
2022-11-03T01:03:25.111Z,101563.94
2022-11-03T01:06:46.051Z,101565.66
2022-11-03T01:09:51.043Z,101570.16
2022-11-03T01:12:54.666Z,101557.91
2022-11-03T01:15:59.878Z,101560.22
2022-11-03T01:19:03.478Z,101556.03
2022-11-03T01:22:10.703Z,101544.66
2022-11-03T01:25:16.221Z,101540.50
2022-11-03T01:28:19.840Z,101543.97
2022-11-03T01:31:25.933Z,101537.88
2022-11-03T01:34:29.581Z,101537.69
2022-11-03T01:37:33.131Z,101538.84
2022-11-03T01:40:38.093Z,101541.34
2022-11-03T01:43:42.907Z,101546.69
2022-11-03T01:46:55.322Z,101541.56
2022-11-03T01:50:06.833Z,101547.59
2022-11-03T01:53:10.537Z,101545.00
2022-11-03T01:56:17.694Z,101541.44
2022-11-03T01:59:25.164Z,101535.31
2022-11-03T02:02:29.596Z,101524.06
2022-11-03T02:05:33.348Z,101518.00
2022-11-03T02:08:43.508Z,101509.13
2022-11-03T02:12:06.525Z,101496.88
2022-11-03T02:15:14.625Z,101481.50
2022-11-03T02:18:22.687Z,101484.03
2022-11-03T02:21:32.285Z,101484.03
2022-11-03T02:24:53.979Z,101480.84
2022-11-03T02:28:00.509Z,101473.88
2022-11-03T02:31:16.186Z,101470.50
2022-11-03T02:34:28.862Z,101464.38
2022-11-03T02:37:38.765Z,101452.13
2022-11-03T02:40:49.708Z,101455.63
2022-11-03T02:43:57.888Z,101439.09
2022-11-03T02:47:07.108Z,101439.28
2022-11-03T02:50:11.613Z,101448.09
2022-11-03T02:53:16.903Z,101437.53
2022-11-03T02:56:24.798Z,101441.06
2022-11-03T02:59:37.753Z,101449.78
2022-11-03T03:02:51.474Z,101446.13
2022-11-03T03:06:03.646Z,101437.50
2022-11-03T03:09:15.372Z,101440.09
2022-11-03T03:12:23.249Z,101441.09
2022-11-03T03:15:42.229Z,101434.19
2022-11-03T03:18:52.442Z,101427.94
2022-11-03T03:22:02.510Z,101425.31
2022-11-03T03:25:15.270Z,101424.34
2022-11-03T03:28:26.475Z,101420.00
2022-11-03T03:31:39.718Z,101409.66
2022-11-03T03:34:46.518Z,101405.09
2022-11-03T03:37:56.029Z,101398.25
2022-11-03T03:41:03.545Z,101400.84
2022-11-03T03:44:13.958Z,101390.47
2022-11-03T03:47:24.362Z,101397.31
2022-11-03T03:50:34.198Z,101383.22
2022-11-03T03:53:37.870Z,101383.38
2022-11-03T03:56:48.358Z,101378.22
2022-11-03T03:59:52.363Z,101379.03
2022-11-03T04:03:00.131Z,101380.75
2022-11-03T04:06:03.770Z,101380.00
2022-11-03T04:09:07.444Z,101375.59
2022-11-03T04:12:43.630Z,101374.59
2022-11-03T04:16:04.726Z,101372.97
2022-11-03T04:19:30.118Z,101371.97
2022-11-03T04:22:35.317Z,101373.88
2022-11-03T04:25:38.986Z,101365.13
2022-11-03T04:28:43.382Z,101373.94
2022-11-03T04:31:47.107Z,101360.75
2022-11-03T04:34:52.072Z,101369.50
2022-11-03T04:38:02.027Z,101361.66
2022-11-03T04:41:17.002Z,101365.13
2022-11-03T04:44:20.829Z,101365.88
2022-11-03T04:47:26.781Z,101362.53
2022-11-03T04:50:31.783Z,101361.59
2022-11-03T04:53:35.699Z,101355.56
2022-11-03T04:56:39.345Z,101352.13
2022-11-03T04:59:46.451Z,101353.56
2022-11-03T05:02:55.879Z,101350.09
2022-11-03T05:06:12.486Z,101350.13
2022-11-03T05:09:22.110Z,101350.97
2022-11-03T05:12:26.427Z,101343.13
2022-11-03T05:15:36.778Z,101336.03
2022-11-03T05:18:44.558Z,101334.41
2022-11-03T05:21:52.164Z,101336.16
2022-11-03T05:25:02.042Z,101323.94
2022-11-03T05:28:17.057Z,101323.00
2022-11-03T05:31:26.509Z,101317.72
2022-11-03T05:34:42.390Z,101306.22
2022-11-03T05:37:47.478Z,101301.78
2022-11-03T05:40:55.282Z,101297.38
2022-11-03T05:44:04.643Z,101294.69
2022-11-03T05:47:20.035Z,101295.81
2022-11-03T05:50:26.687Z,101293.31
2022-11-03T05:53:38.889Z,101301.13
2022-11-03T05:56:42.591Z,101299.28
2022-11-03T05:59:50.729Z,101287.78
2022-11-03T06:02:55.352Z,101280.72
2022-11-03T06:06:01.314Z,101279.69
2022-11-03T06:09:17.714Z,101272.03
2022-11-03T06:12:23.805Z,101269.56
2022-11-03T06:15:33.428Z,101273.72
2022-11-03T06:18:39.573Z,101273.72
2022-11-03T06:21:46.134Z,101265.06
2022-11-03T06:24:51.782Z,101261.53
2022-11-03T06:28:01.570Z,101270.25
2022-11-03T06:31:11.782Z,101259.00
2022-11-03T06:34:38.015Z,101268.72
2022-11-03T06:37:43.341Z,101259.03
2022-11-03T06:40:53.046Z,101255.28
2022-11-03T06:43:57.603Z,101247.31
2022-11-03T06:47:10.373Z,101240.44
2022-11-03T06:50:26.809Z,101235.97
2022-11-03T06:53:34.994Z,101242.75
2022-11-03T06:56:40.004Z,101233.94
2022-11-03T06:59:43.677Z,101237.44
2022-11-03T07:03:09.192Z,101237.44
2022-11-03T07:06:24.534Z,101234.78
2022-11-03T07:09:28.407Z,101226.69
2022-11-03T07:12:33.446Z,101234.66
2022-11-03T07:15:39.922Z,101227.75
2022-11-03T07:18:45.029Z,101219.44
2022-11-03T07:21:51.586Z,101226.47
2022-11-03T07:24:58.588Z,101230.00
2022-11-03T07:28:05.245Z,101218.34
2022-11-03T07:31:20.147Z,101222.84
2022-11-03T07:34:29.753Z,101222.84
2022-11-03T07:37:33.742Z,101218.31
2022-11-03T07:40:38.578Z,101223.50
2022-11-03T07:43:49.441Z,101220.63
2022-11-03T07:46:53.080Z,101203.22
2022-11-03T07:49:57.703Z,101200.66
2022-11-03T07:53:01.506Z,101192.75
2022-11-03T07:56:19.949Z,101188.19
2022-11-03T07:59:32.486Z,101181.22
2022-11-03T08:02:42.694Z,101184.59
2022-11-03T08:05:46.257Z,101174.72
2022-11-03T08:08:49.937Z,101172.38
2022-11-03T08:11:54.418Z,101171.41
2022-11-03T08:14:59.688Z,101170.41
2022-11-03T08:18:03.287Z,101159.00
2022-11-03T08:21:07.303Z,101169.22
2022-11-03T08:24:10.946Z,101154.97
2022-11-03T08:27:14.643Z,101154.75
2022-11-03T08:30:19.716Z,101147.59
2022-11-03T08:33:23.339Z,101145.66
2022-11-03T08:36:26.905Z,101134.47
2022-11-03T08:39:31.710Z,101136.03
2022-11-03T08:42:35.422Z,101133.22
2022-11-03T08:45:40.520Z,101129.50
2022-11-03T08:48:44.040Z,101124.97
2022-11-03T08:51:47.600Z,101120.94
2022-11-03T08:54:51.377Z,101113.13
2022-11-03T08:57:55.058Z,101105.63
2022-11-03T09:01:00.108Z,101117.59
2022-11-03T09:04:04.201Z,101102.41
2022-11-03T09:07:07.838Z,101096.63
2022-11-03T09:10:22.044Z,101087.06
2022-11-03T09:13:28.372Z,101089.19
2022-11-03T09:16:33.416Z,101089.66
2022-11-03T09:19:37.033Z,101081.44
2022-11-03T09:22:40.700Z,101079.03
2022-11-03T09:25:44.268Z,101071.72
2022-11-03T09:28:49.453Z,101070.09
2022-11-03T09:31:54.625Z,101074.94
2022-11-03T09:34:58.217Z,101066.16
2022-11-03T09:38:01.782Z,101072.25
2022-11-03T09:41:13.912Z,101070.22
2022-11-03T09:44:29.724Z,101062.94
2022-11-03T09:47:38.502Z,101057.44
2022-11-03T09:50:42.388Z,101054.81
2022-11-03T09:53:46.478Z,101054.03
2022-11-03T09:56:50.302Z,101055.72
2022-11-03T09:59:55.066Z,101048.59
2022-11-03T10:03:00.093Z,101046.41
2022-11-03T10:06:04.861Z,101039.47
2022-11-03T10:09:15.754Z,101034.34
2022-11-03T10:12:20.353Z,101038.81
2022-11-03T10:15:26.642Z,101039.19
2022-11-03T10:18:31.915Z,101031.97
2022-11-03T10:21:36.078Z,101030.38
2022-11-03T10:24:39.663Z,101031.81
2022-11-03T10:27:43.210Z,101031.47
2022-11-03T10:34:34.918Z,101017.06
2022-11-03T10:37:39.879Z,101025.03
2022-11-03T10:40:48.332Z,101010.69
2022-11-03T10:44:05.406Z,101006.75
2022-11-03T10:47:24.521Z,101000.44
2022-11-03T10:50:30.190Z,100997.31
2022-11-03T10:53:33.963Z,100992.53
2022-11-03T10:56:38.090Z,100992.47
2022-11-03T10:59:42.658Z,100976.94
2022-11-03T11:02:48.247Z,100976.34
2022-11-03T11:05:53.229Z,100967.03
2022-11-03T11:09:04.180Z,100963.09
2022-11-03T11:12:17.956Z,100955.25
2022-11-03T11:15:43.033Z,100953.75
2022-11-03T11:19:03.635Z,100941.22
2022-11-03T11:22:16.018Z,100935.19
2022-11-03T11:25:20.313Z,100925.53
2022-11-03T11:28:23.934Z,100913.63
2022-11-03T11:31:33.095Z,100904.06
2022-11-03T11:34:43.484Z,100893.16
2022-11-03T11:37:48.466Z,100892.34
2022-11-03T11:40:52.764Z,100881.31
2022-11-03T11:44:35.464Z,100870.44
2022-11-03T11:47:52.235Z,100867.44
2022-11-03T11:50:59.120Z,100864.41
2022-11-03T11:54:18.124Z,100856.06
2022-11-03T11:57:23.772Z,100844.38
2022-11-03T12:00:31.476Z,100846.59
2022-11-03T12:03:45.398Z,100842.75
2022-11-03T12:06:49.190Z,100837.63
2022-11-03T12:09:54.278Z,100834.00
2022-11-03T12:12:59.857Z,100829.06
2022-11-03T12:16:03.579Z,100823.59
2022-11-03T12:19:45.023Z,100830.81
2022-11-03T12:22:48.930Z,100815.16
2022-11-03T12:25:53.914Z,100814.03
2022-11-03T12:28:57.558Z,100817.25
2022-11-03T12:32:01.125Z,100811.03
2022-11-03T12:35:05.700Z,100805.50
2022-11-03T12:38:09.396Z,100813.03
2022-11-03T12:41:25.583Z,100810.47
2022-11-03T12:44:29.590Z,100794.97
2022-11-03T12:47:33.196Z,100785.84
2022-11-03T12:50:37.639Z,100780.59
2022-11-03T12:53:42.169Z,100775.47
2022-11-03T12:56:47.149Z,100772.94
2022-11-03T12:59:51.493Z,100758.66
2022-11-03T13:02:55.723Z,100757.44
2022-11-03T13:05:59.455Z,100746.47
2022-11-03T13:09:03.109Z,100750.81
2022-11-03T13:12:32.822Z,100760.63
2022-11-03T13:15:36.877Z,100760.34
2022-11-03T13:18:40.441Z,100749.06
2022-11-03T13:21:44.020Z,100755.81
2022-11-03T13:24:47.715Z,100748.88
2022-11-03T13:27:54.511Z,100748.59
2022-11-03T13:30:58.097Z,100734.16
2022-11-03T13:34:01.825Z,100727.09
2022-11-03T13:37:05.954Z,100725.69
2022-11-03T13:40:35.546Z,100719.75
2022-11-03T13:43:38.002Z,100710.88
2022-11-03T13:46:43.111Z,100694.16
2022-11-03T13:50:12.987Z,100686.63
2022-11-03T14:00:02.040Z,100641.75
2022-11-03T14:06:32.082Z,100646.50
2022-11-03T14:12:40.466Z,100645.72
2022-11-03T14:15:45.691Z,100645.13
2022-11-03T14:18:49.388Z,100629.59
2022-11-03T14:21:53.193Z,100612.00
2022-11-03T14:24:56.787Z,100598.66
2022-11-03T14:28:00.489Z,100605.06
2022-11-03T14:31:06.757Z,100605.19
2022-11-03T14:34:10.455Z,100605.19
2022-11-03T14:37:15.238Z,100584.22
2022-11-03T14:40:33.300Z,100566.22
2022-11-03T14:43:37.065Z,100569.66
2022-11-03T14:46:42.320Z,100547.06
2022-11-03T14:49:47.004Z,100540.44
2022-11-03T14:52:50.588Z,100543.84
2022-11-03T14:55:54.082Z,100544.28
2022-11-03T14:58:57.825Z,100536.81
2022-11-03T15:02:03.846Z,100517.78
2022-11-03T15:05:28.174Z,100518.81
2022-11-03T15:08:32.598Z,100510.16
2022-11-03T15:11:37.378Z,100497.94
2022-11-03T15:14:41.124Z,100494.66
2022-11-03T15:17:46.157Z,100501.56
2022-11-03T15:20:50.026Z,100508.78
2022-11-03T15:27:17.390Z,100496.84
2022-11-03T15:30:21.796Z,100482.78
2022-11-03T15:33:27.002Z,100464.47
2022-11-03T15:36:30.916Z,100453.97
2022-11-03T15:39:34.512Z,100448.84
2022-11-03T15:42:38.026Z,100457.72
2022-11-03T15:45:41.730Z,100455.78
2022-11-03T15:48:48.730Z,100449.41
2022-11-03T15:51:52.351Z,100441.97
2022-11-03T15:54:56.087Z,100431.97
2022-11-03T15:57:59.780Z,100434.16
2022-11-03T16:01:04.150Z,100426.13
2022-11-03T16:04:09.230Z,100413.91
2022-11-03T16:07:12.855Z,100412.47
2022-11-03T16:10:17.695Z,100387.91
2022-11-03T16:13:21.332Z,100392.44
2022-11-03T16:16:24.940Z,100386.28
2022-11-03T16:19:29.872Z,100379.53
2022-11-03T16:22:33.467Z,100372.06
2022-11-03T16:25:38.136Z,100367.53
2022-11-03T16:28:41.755Z,100375.47
2022-11-03T16:31:46.945Z,100380.38
2022-11-03T16:34:52.304Z,100369.44
2022-11-03T16:37:56.035Z,100366.03
2022-11-03T16:40:59.574Z,100361.16
2022-11-03T16:44:09.631Z,100364.44
2022-11-03T16:47:13.336Z,100350.13
2022-11-03T16:50:19.670Z,100356.97
2022-11-03T16:53:23.296Z,100339.47
2022-11-03T16:56:26.965Z,100340.34
2022-11-03T16:59:30.614Z,100339.63
2022-11-03T17:02:34.455Z,100327.16
2022-11-03T17:05:39.910Z,100320.94
2022-11-03T17:08:59.005Z,100314.94
2022-11-03T17:12:02.590Z,100307.91
2022-11-03T17:15:07.903Z,100313.78
2022-11-03T17:18:11.633Z,100300.59
2022-11-03T17:21:16.613Z,100310.81
2022-11-03T17:24:20.581Z,100301.16
2022-11-03T17:27:29.174Z,100300.59
2022-11-03T17:30:37.906Z,100296.16
2022-11-03T17:33:41.518Z,100291.16
2022-11-03T17:36:46.777Z,100285.06
2022-11-03T17:39:51.157Z,100286.81
2022-11-03T17:42:55.095Z,100285.06
2022-11-03T17:45:59.085Z,100282.63
2022-11-03T17:49:02.845Z,100281.00
2022-11-03T17:52:14.455Z,100265.44
2022-11-03T17:55:23.683Z,100268.22
2022-11-03T17:58:31.589Z,100266.50
2022-11-03T18:01:36.191Z,100262.31
2022-11-03T18:04:39.817Z,100273.47
2022-11-03T18:07:44.742Z,100257.03
2022-11-03T18:10:52.010Z,100265.09
2022-11-03T18:13:57.706Z,100253.34
2022-11-03T18:17:01.399Z,100239.56
2022-11-03T18:20:14.425Z,100242.63
2022-11-03T18:23:22.148Z,100228.50
2022-11-03T18:26:27.706Z,100223.09
2022-11-03T18:29:31.288Z,100223.94
2022-11-03T18:32:36.034Z,100220.22
2022-11-03T18:35:39.804Z,100219.53
2022-11-03T18:38:48.488Z,100217.59
2022-11-03T18:41:52.414Z,100209.72
2022-11-03T18:45:02.305Z,100213.34
2022-11-03T18:48:07.548Z,100197.31
2022-11-03T18:51:11.853Z,100194.97
2022-11-03T18:54:21.419Z,100196.91
2022-11-03T18:57:26.569Z,100186.56
2022-11-03T19:00:30.164Z,100190.16
2022-11-03T19:03:34.284Z,100173.53
2022-11-03T19:06:39.070Z,100166.47
2022-11-03T19:09:45.197Z,100155.78
2022-11-03T19:12:49.661Z,100158.25
2022-11-03T19:15:53.370Z,100151.53
2022-11-03T19:18:56.933Z,100145.44
2022-11-03T19:22:00.479Z,100149.91
2022-11-03T19:25:06.533Z,100149.00
2022-11-03T19:28:14.460Z,100145.81
2022-11-03T19:31:26.923Z,100143.75
2022-11-03T19:34:35.812Z,100131.69
2022-11-03T19:37:39.718Z,100121.34
2022-11-03T19:41:00.001Z,100119.47
2022-11-03T19:44:07.442Z,100126.50
2022-11-03T19:47:18.050Z,100120.09
2022-11-03T19:50:35.376Z,100118.78
2022-11-03T19:53:43.220Z,100106.28
2022-11-03T19:56:51.384Z,100095.41
2022-11-03T19:59:59.149Z,100097.06
2022-11-03T20:03:03.514Z,100096.16
2022-11-03T20:06:08.628Z,100095.84
2022-11-03T20:09:19.464Z,100103.88
2022-11-03T20:12:27.041Z,100089.84
2022-11-03T20:15:38.695Z,100093.38
2022-11-03T20:18:42.644Z,100088.75
2022-11-03T20:21:46.445Z,100084.75
2022-11-03T20:24:50.591Z,100070.06
2022-11-03T20:27:56.782Z,100066.34
2022-11-03T20:31:01.319Z,100066.56
2022-11-03T20:34:05.045Z,100060.78
2022-11-03T20:37:19.198Z,100067.88
2022-11-03T20:40:25.930Z,100071.91
2022-11-03T20:43:34.434Z,100070.41
2022-11-03T20:46:38.087Z,100070.66
2022-11-03T20:49:41.933Z,100075.28
2022-11-03T20:52:47.861Z,100074.19
2022-11-03T20:55:52.953Z,100075.28
2022-11-03T20:58:58.466Z,100066.78
2022-11-03T21:02:02.089Z,100072.03
2022-11-03T21:05:14.681Z,100064.78
2022-11-03T21:08:18.509Z,100061.81
2022-11-03T21:11:27.454Z,100052.53
2022-11-03T21:14:33.898Z,100052.28
2022-11-03T21:17:54.887Z,100051.31
2022-11-03T21:20:58.846Z,100047.50
2022-11-03T21:24:02.417Z,100040.47
2022-11-03T21:27:06.074Z,100025.53
2022-11-03T21:30:13.163Z,100039.97
2022-11-03T21:33:17.609Z,100038.16
2022-11-03T21:36:21.207Z,100027.03
2022-11-03T21:39:25.361Z,100030.34
2022-11-03T21:42:46.290Z,100034.63
2022-11-03T21:45:52.471Z,100040.13
2022-11-03T21:49:13.292Z,100031.19
2022-11-03T21:52:19.803Z,100038.16
2022-11-03T21:55:23.509Z,100037.34
2022-11-03T21:58:27.313Z,100036.44
2022-11-03T22:01:32.539Z,100028.56
2022-11-03T22:04:36.663Z,100038.06
2022-11-03T22:07:40.401Z,100030.34
2022-11-03T22:10:44.093Z,100039.97
2022-11-03T22:13:48.358Z,100040.84
2022-11-03T22:16:52.581Z,100041.22
2022-11-03T22:20:13.543Z,100042.28
2022-11-03T22:23:35.073Z,100043.13
2022-11-03T22:26:57.068Z,100035.34
2022-11-03T22:30:18.941Z,100024.06
2022-11-03T22:33:24.865Z,100020.78
2022-11-03T22:36:28.562Z,100028.06
2022-11-03T22:39:49.304Z,100031.75
2022-11-03T22:43:10.791Z,100027.56
2022-11-03T22:46:17.264Z,100021.47
2022-11-03T22:49:22.237Z,100016.56
2022-11-03T22:52:25.810Z,100017.63
2022-11-03T22:55:28.424Z,100018.63
2022-11-03T22:58:31.978Z,100011.81
2022-11-03T23:01:36.260Z,100013.75
2022-11-03T23:04:41.285Z,100011.81
2022-11-03T23:07:44.894Z,100014.53
2022-11-03T23:10:48.432Z,100013.53
2022-11-03T23:13:57.805Z,100011.34
2022-11-03T23:17:01.351Z,100005.31
2022-11-03T23:20:24.930Z,99999.94
2022-11-03T23:23:45.972Z,99996.59
2022-11-03T23:26:51.226Z,99999.13
2022-11-03T23:29:54.846Z,99994.53
2022-11-03T23:32:58.518Z,99992.09
2022-11-03T23:36:06.569Z,99980.38
2022-11-03T23:39:15.510Z,99976.75
2022-11-03T23:42:19.041Z,99980.94
2022-11-03T23:45:39.896Z,99977.59
2022-11-03T23:48:49.469Z,99976.69
2022-11-03T23:51:54.551Z,99992.75
2022-11-03T23:54:58.170Z,99981.88
2022-11-03T23:58:18.850Z,99986.28
